createdAt,value
2022-08-08T00:08:52.330Z,100224.48
2022-08-08T00:19:07.745Z,100221.91
2022-08-08T00:29:44.332Z,100220.13
2022-08-08T00:41:11.528Z,100213.33
2022-08-08T00:50:53.391Z,100205.28
2022-08-08T01:01:13.761Z,100207.27
2022-08-08T01:12:00.303Z,100206.48
2022-08-08T01:22:35.658Z,100211.99
2022-08-08T01:33:28.000Z,100211.70
2022-08-08T01:43:55.701Z,100208.54
2022-08-08T01:55:45.513Z,100205.77
2022-08-08T02:04:44.151Z,100213.71
2022-08-08T02:15:00.798Z,100217.02
2022-08-08T02:25:16.790Z,100224.67
2022-08-08T02:36:16.536Z,100225.59
2022-08-08T02:46:47.225Z,100237.15
2022-08-08T02:57:40.370Z,100239.33
2022-08-08T03:08:26.918Z,100242.27
2022-08-08T03:18:39.224Z,100245.17
2022-08-08T03:28:51.347Z,100247.73
2022-08-08T03:39:14.143Z,100249.48
2022-08-08T03:49:57.995Z,100246.45
2022-08-08T04:00:02.811Z,100255.96
2022-08-08T04:10:14.310Z,100257.64
2022-08-08T04:20:20.122Z,100267.63
2022-08-08T04:30:40.024Z,100265.73
2022-08-08T04:40:54.351Z,100265.61
2022-08-08T04:51:00.628Z,100270.17
2022-08-08T05:01:10.834Z,100281.06
2022-08-08T05:11:24.313Z,100284.14
2022-08-08T05:21:43.599Z,100278.52
2022-08-08T05:32:04.492Z,100273.59
2022-08-08T05:42:14.241Z,100272.75
2022-08-08T05:52:31.635Z,100270.25
2022-08-08T06:02:56.973Z,100276.45
2022-08-08T06:13:05.947Z,100277.92
2022-08-08T06:23:12.263Z,100284.55
2022-08-08T06:33:37.327Z,100288.96
2022-08-08T06:43:59.428Z,100299.10
2022-08-08T06:54:07.317Z,100305.80
2022-08-08T07:04:37.314Z,100297.36
2022-08-08T07:14:54.552Z,100293.66
2022-08-08T07:25:07.183Z,100296.91
2022-08-08T07:35:14.516Z,100301.96
2022-08-08T07:45:20.829Z,100303.28
2022-08-08T07:55:29.694Z,100303.33
2022-08-08T08:05:45.193Z,100309.20
2022-08-08T08:16:05.307Z,100306.55
2022-08-08T08:26:11.425Z,100300.34
2022-08-08T08:36:21.983Z,100302.23
2022-08-08T08:46:33.362Z,100304.30
2022-08-08T08:56:41.461Z,100308.27
2022-08-08T09:06:56.976Z,100306.05
2022-08-08T09:17:11.468Z,100310.08
2022-08-08T09:27:21.295Z,100305.00
2022-08-08T09:37:58.206Z,100296.70
2022-08-08T09:48:15.982Z,100293.66
2022-08-08T09:58:40.306Z,100287.13
2022-08-08T10:08:48.099Z,100284.67
2022-08-08T10:19:05.426Z,100285.16
2022-08-08T10:29:21.082Z,100275.36
2022-08-08T10:39:43.058Z,100274.03
2022-08-08T10:50:00.215Z,100277.83
2022-08-08T11:00:12.448Z,100269.77
2022-08-08T11:10:28.827Z,100267.27
2022-08-08T11:20:44.786Z,100264.48
2022-08-08T11:31:00.857Z,100258.58
2022-08-08T11:41:10.776Z,100267.27
2022-08-08T11:51:38.996Z,100269.50
2022-08-08T12:01:44.507Z,100260.33
2022-08-08T12:11:50.759Z,100258.65
2022-08-08T12:22:13.822Z,100262.89
2022-08-08T12:32:27.297Z,100263.09
2022-08-08T12:42:47.857Z,100260.10
2022-08-08T12:52:57.072Z,100253.98
2022-08-08T13:03:03.267Z,100247.91
2022-08-08T13:13:09.451Z,100245.67
2022-08-08T13:23:41.916Z,100245.52
2022-08-08T13:33:50.069Z,100237.73
2022-08-08T13:43:57.606Z,100227.82
2022-08-08T13:54:03.773Z,100228.65
2022-08-08T14:04:09.541Z,100227.66
2022-08-08T14:14:20.872Z,100230.42
2022-08-08T14:24:36.440Z,100226.38
2022-08-08T14:34:43.255Z,100229.58
2022-08-08T14:45:00.322Z,100224.43
2022-08-08T14:55:07.846Z,100222.20
2022-08-08T15:05:14.128Z,100211.67
2022-08-08T15:16:03.320Z,100213.39
2022-08-08T15:25:46.946Z,100215.83
2022-08-08T15:35:52.772Z,100215.53
2022-08-08T15:45:58.728Z,100217.21
2022-08-08T15:56:04.958Z,100212.40
2022-08-08T16:06:14.289Z,100216.95
2022-08-08T16:16:22.204Z,100215.71
2022-08-08T16:26:34.078Z,100218.48
2022-08-08T16:36:42.068Z,100222.04
2022-08-08T16:46:49.076Z,100216.98
2022-08-08T16:57:22.796Z,100220.09
2022-08-08T17:07:27.852Z,100223.44
2022-08-08T17:18:00.948Z,100233.95
2022-08-08T17:28:00.111Z,100238.76
2022-08-08T17:38:07.340Z,100241.56
2022-08-08T17:48:14.987Z,100247.02
2022-08-08T17:58:36.584Z,100260.14
2022-08-08T18:08:43.714Z,100271.96
2022-08-08T18:18:53.172Z,100279.55
2022-08-08T18:29:00.092Z,100296.45
2022-08-08T18:39:07.585Z,100306.19
2022-08-08T18:49:14.057Z,100311.86
2022-08-08T18:59:19.957Z,100324.35
2022-08-08T19:09:49.646Z,100329.48
2022-08-08T19:20:02.712Z,100334.22
2022-08-08T19:30:24.089Z,100335.95
2022-08-08T19:40:32.750Z,100346.46
2022-08-08T19:50:39.497Z,100356.70
2022-08-08T20:00:45.730Z,100359.13
2022-08-08T20:10:51.490Z,100367.79
2022-08-08T20:20:57.467Z,100370.84
2022-08-08T20:31:03.718Z,100374.59
2022-08-08T20:41:17.437Z,100376.28
2022-08-08T20:51:25.186Z,100380.40
2022-08-08T21:02:05.569Z,100372.40
2022-08-08T21:12:04.723Z,100371.66
2022-08-08T21:22:10.539Z,100371.50
2022-08-08T21:32:24.810Z,100372.58
2022-08-08T21:42:31.208Z,100371.31
2022-08-08T21:54:22.738Z,100372.80
2022-08-08T22:03:02.630Z,100379.27
2022-08-08T22:13:17.628Z,100379.27
2022-08-08T22:23:32.770Z,100380.91
2022-08-08T22:34:13.741Z,100385.35
2022-08-08T22:44:08.160Z,100382.84
2022-08-08T22:54:31.666Z,100384.25
2022-08-08T23:04:55.990Z,100384.29
2022-08-08T23:15:11.230Z,100382.42
2022-08-08T23:25:29.323Z,100380.21
2022-08-08T23:35:59.075Z,100377.27
2022-08-08T23:49:04.762Z,100377.96
2022-08-08T23:56:32.544Z,100382.56
